Time;durP1;ratioP1;P1;durP2;ratioP2;P2;SDS_P1;SDS_P2;PMS_P1;PMS_P2;Temp;Humidity;BMP_temperature;BMP_pressure;BME280_temperature;BME280_humidity;BME280_pressure;Samples;Min_cycle;Max_cycle;Signal;HPM_P1;HPM_P2
2023/10/24 00:00:38;;;;;;;25.70;14.38;;;;;;;;;;5078141;28;20032;-80
2023/10/24 00:03:04;;;;;;;29.15;15.40;;;;;;;;;;5064770;28;20070;-82
2023/10/24 00:05:31;;;;;;;23.73;14.52;;;;;;;;;;5063699;28;20037;-79
2023/10/24 00:07:57;;;;;;;24.58;14.75;;;;;;;;;;5061664;28;20044;-78
2023/10/24 00:10:23;;;;;;;25.27;15.38;;;;;;;;;;5065821;28;20036;-78
2023/10/24 00:12:50;;;;;;;24.58;15.65;;;;;;;;;;5080717;28;20488;-79
2023/10/24 00:15:16;;;;;;;22.13;14.90;;;;;;;;;;5062713;28;20032;-79
2023/10/24 00:17:42;;;;;;;20.88;14.65;;;;;;;;;;5064074;28;20440;-77
2023/10/24 00:20:09;;;;;;;22.77;15.45;;;;;;;;;;5064467;28;20043;-81
2023/10/24 00:22:35;;;;;;;22.30;14.90;;;;;;;;;;5048570;28;20532;-78
2023/10/24 00:25:01;;;;;;;21.73;14.80;;;;;;;;;;5081954;28;20059;-78
2023/10/24 00:27:28;;;;;;;21.17;14.27;;;;;;;;;;5081874;28;20105;-77
2023/10/24 00:29:54;;;;;;;20.58;15.00;;;;;;;;;;5074482;28;20035;-76
2023/10/24 00:32:20;;;;;;;22.20;15.85;;;;;;;;;;5082807;28;20032;-76
2023/10/24 00:34:46;;;;;;;23.60;17.10;;;;;;;;;;5092584;28;20032;-79
2023/10/24 00:37:12;;;;;;;28.15;17.42;;;;;;;;;;5086109;28;20070;-79
2023/10/24 00:39:39;;;;;;;25.88;18.80;;;;;;;;;;5083877;28;20028;-78
2023/10/24 00:42:06;;;;;;;26.67;20.17;;;;;;;;;;5082235;28;20020;-79
2023/10/24 00:44:33;;;;;;;29.45;20.88;;;;;;;;;;5083301;28;20063;-78
2023/10/24 00:47:01;;;;;;;36.72;24.23;;;;;;;;;;5063535;28;20450;-78
2023/10/24 00:49:27;;;;;;;38.13;26.63;;;;;;;;;;5070453;28;20028;-77
2023/10/24 00:51:55;;;;;;;44.42;27.60;;;;;;;;;;5087262;28;20392;-78
2023/10/24 00:54:22;;;;;;;44.40;28.88;;;;;;;;;;5080628;28;20397;-78
2023/10/24 00:56:49;;;;;;;48.42;31.80;;;;;;;;;;5084015;28;20032;-77
2023/10/24 00:59:15;;;;;;;49.83;33.35;;;;;;;;;;5094576;28;20119;-78
2023/10/24 01:01:41;;;;;;;49.38;35.05;;;;;;;;;;5086795;28;20059;-77
2023/10/24 01:04:09;;;;;;;52.33;36.03;;;;;;;;;;5063757;28;20041;-78
2023/10/24 01:06:36;;;;;;;56.35;37.10;;;;;;;;;;5068668;28;20029;-76
2023/10/24 01:09:02;;;;;;;60.90;41.70;;;;;;;;;;5047000;28;20097;-77
2023/10/24 01:11:28;;;;;;;62.88;42.58;;;;;;;;;;5085523;28;20139;-77
2023/10/24 01:13:56;;;;;;;63.78;41.33;;;;;;;;;;5066589;28;20032;-78
2023/10/24 01:16:22;;;;;;;66.63;45.08;;;;;;;;;;5086868;28;20035;-77
2023/10/24 01:18:48;;;;;;;67.72;45.10;;;;;;;;;;5085574;28;20498;-77
2023/10/24 01:21:15;;;;;;;74.03;44.78;;;;;;;;;;5085022;28;20042;-79
2023/10/24 01:23:41;;;;;;;74.40;44.25;;;;;;;;;;5087636;28;20451;-78
2023/10/24 01:26:08;;;;;;;72.70;42.85;;;;;;;;;;5092071;28;20439;-78
2023/10/24 01:28:34;;;;;;;79.38;45.92;;;;;;;;;;5088912;28;20089;-77
2023/10/24 01:31:00;;;;;;;73.70;45.80;;;;;;;;;;5082541;28;20024;-78
2023/10/24 01:33:26;;;;;;;80.60;45.63;;;;;;;;;;5084968;28;20481;-78
2023/10/24 01:35:54;;;;;;;77.55;46.75;;;;;;;;;;5068851;28;20135;-78
2023/10/24 01:38:20;;;;;;;86.00;46.17;;;;;;;;;;5086729;28;20035;-77
2023/10/24 01:40:46;;;;;;;77.70;45.00;;;;;;;;;;5066490;28;20036;-77
2023/10/24 01:43:13;;;;;;;74.63;44.53;;;;;;;;;;5066541;28;20028;-78
2023/10/24 01:45:39;;;;;;;72.25;44.45;;;;;;;;;;5088548;28;20089;-77
2023/10/24 01:48:06;;;;;;;75.53;44.83;;;;;;;;;;5091846;28;20152;-78
2023/10/24 01:50:32;;;;;;;71.15;42.15;;;;;;;;;;5048811;28;20048;-78
2023/10/24 01:53:00;;;;;;;81.25;44.35;;;;;;;;;;5052996;28;20182;-77
2023/10/24 01:55:26;;;;;;;77.25;42.63;;;;;;;;;;5072750;28;20035;-77
2023/10/24 01:57:52;;;;;;;85.07;43.33;;;;;;;;;;5081889;28;20039;-77
2023/10/24 02:00:19;;;;;;;75.13;43.25;;;;;;;;;;5066394;28;20424;-78
2023/10/24 02:02:46;;;;;;;72.65;42.72;;;;;;;;;;5066300;28;20072;-76
2023/10/24 02:05:12;;;;;;;74.95;42.47;;;;;;;;;;5080700;28;20027;-77
2023/10/24 02:07:39;;;;;;;78.88;42.33;;;;;;;;;;5067932;28;20037;-78
2023/10/24 02:10:05;;;;;;;72.28;41.85;;;;;;;;;;5065420;28;20035;-85
2023/10/24 02:12:32;;;;;;;79.00;40.53;;;;;;;;;;5084506;28;20108;-79
2023/10/24 02:14:58;;;;;;;68.53;39.30;;;;;;;;;;5085050;28;20020;-79
2023/10/24 02:17:24;;;;;;;64.63;39.97;;;;;;;;;;5065669;28;20024;-77
2023/10/24 02:19:52;;;;;;;69.65;39.00;;;;;;;;;;5085404;28;20039;-77
2023/10/24 02:22:18;;;;;;;61.55;36.67;;;;;;;;;;5047051;28;20032;-77
2023/10/24 02:24:44;;;;;;;58.47;35.70;;;;;;;;;;5083448;28;20108;-78
2023/10/24 02:27:10;;;;;;;62.42;36.10;;;;;;;;;;5045706;28;20481;-79
2023/10/24 02:29:36;;;;;;;63.42;38.10;;;;;;;;;;5066703;28;20039;-78
2023/10/24 02:32:03;;;;;;;67.05;38.95;;;;;;;;;;5084204;28;20019;-77
2023/10/24 02:34:29;;;;;;;62.13;39.53;;;;;;;;;;5061546;28;20023;-77
2023/10/24 02:36:55;;;;;;;64.13;39.17;;;;;;;;;;5083363;28;20021;-77
2023/10/24 02:39:21;;;;;;;59.42;39.22;;;;;;;;;;5096929;28;20032;-77
2023/10/24 02:41:47;;;;;;;58.85;38.45;;;;;;;;;;5058431;28;20045;-77
2023/10/24 02:44:14;;;;;;;64.55;38.05;;;;;;;;;;5068509;28;20032;-76
2023/10/24 02:46:40;;;;;;;66.95;39.72;;;;;;;;;;5067909;28;20028;-77
2023/10/24 02:49:06;;;;;;;61.80;38.55;;;;;;;;;;5064755;28;20020;-77
2023/10/24 02:51:32;;;;;;;60.58;38.45;;;;;;;;;;5068298;28;20484;-78
2023/10/24 02:53:58;;;;;;;66.88;37.88;;;;;;;;;;5067937;28;20039;-77
2023/10/24 02:56:25;;;;;;;65.80;38.28;;;;;;;;;;5042655;28;20035;-76
2023/10/24 02:58:51;;;;;;;59.35;36.78;;;;;;;;;;5086502;28;20482;-77
2023/10/24 03:01:17;;;;;;;60.42;37.10;;;;;;;;;;5085576;28;20137;-77
2023/10/24 03:03:43;;;;;;;65.10;37.85;;;;;;;;;;5077837;28;20039;-77
2023/10/24 03:06:14;;;;;;;58.83;36.85;;;;;;;;;;5068843;28;20036;-78
2023/10/24 03:08:40;;;;;;;55.67;36.57;;;;;;;;;;5067156;28;20462;-78
2023/10/24 03:11:06;;;;;;;56.85;35.38;;;;;;;;;;5066940;28;20317;-77
2023/10/24 03:13:34;;;;;;;57.30;36.63;;;;;;;;;;5065866;28;20024;-78
2023/10/24 03:16:04;;;;;;;54.63;35.08;;;;;;;;;;5080926;28;20032;-77
2023/10/24 03:18:30;;;;;;;56.03;34.53;;;;;;;;;;5076891;28;20036;-77
2023/10/24 03:20:57;;;;;;;49.83;32.90;;;;;;;;;;5084389;28;20059;-78
2023/10/24 03:23:23;;;;;;;51.83;33.05;;;;;;;;;;5068113;28;20040;-76
2023/10/24 03:25:50;;;;;;;47.00;32.30;;;;;;;;;;5066604;28;20027;-79
2023/10/24 03:28:16;;;;;;;56.83;33.30;;;;;;;;;;5085371;28;20036;-78
2023/10/24 03:30:43;;;;;;;59.55;34.17;;;;;;;;;;5053240;28;20121;-77
2023/10/24 03:33:10;;;;;;;61.03;36.92;;;;;;;;;;5066042;28;20028;-77
2023/10/24 03:35:36;;;;;;;66.35;37.13;;;;;;;;;;5065680;28;20039;-77
2023/10/24 03:38:03;;;;;;;71.43;37.95;;;;;;;;;;5080969;28;20047;-79
2023/10/24 03:40:29;;;;;;;70.38;37.97;;;;;;;;;;5083535;28;20469;-78
2023/10/24 03:42:55;;;;;;;74.70;38.53;;;;;;;;;;5085075;28;20389;-79
2023/10/24 03:45:22;;;;;;;70.20;38.33;;;;;;;;;;5080837;28;20467;-77
2023/10/24 03:47:49;;;;;;;73.60;36.90;;;;;;;;;;5064004;28;20024;-77
2023/10/24 03:50:15;;;;;;;63.50;37.47;;;;;;;;;;5065011;28;20040;-77
2023/10/24 03:52:42;;;;;;;61.92;36.08;;;;;;;;;;5086057;28;20040;-77
2023/10/24 03:55:11;;;;;;;72.38;38.63;;;;;;;;;;5044542;28;20603;-81
2023/10/24 03:57:38;;;;;;;70.80;38.22;;;;;;;;;;5070964;28;20028;-77
2023/10/24 04:00:08;;;;;;;68.30;37.05;;;;;;;;;;5050513;28;20032;-77
2023/10/24 04:02:38;;;;;;;68.10;37.53;;;;;;;;;;5079124;28;20041;-79
2023/10/24 04:05:06;;;;;;;72.38;38.47;;;;;;;;;;5075698;28;20043;-77
2023/10/24 04:07:33;;;;;;;63.35;36.72;;;;;;;;;;5052321;28;20074;-77
2023/10/24 04:09:59;;;;;;;64.22;36.97;;;;;;;;;;5087076;28;20040;-77
2023/10/24 04:12:25;;;;;;;61.13;36.03;;;;;;;;;;5077748;28;20078;-77
2023/10/24 04:14:51;;;;;;;70.93;38.33;;;;;;;;;;5067404;28;20485;-78
2023/10/24 04:17:17;;;;;;;64.53;38.33;;;;;;;;;;5061242;28;20044;-77
2023/10/24 04:19:45;;;;;;;71.68;41.15;;;;;;;;;;5085096;28;20029;-77
2023/10/24 04:22:11;;;;;;;74.53;41.45;;;;;;;;;;5081117;28;20028;-78
2023/10/24 04:24:37;;;;;;;73.50;40.83;;;;;;;;;;5058333;28;20043;-79
2023/10/24 04:27:03;;;;;;;72.97;39.83;;;;;;;;;;5063127;28;20404;-78
2023/10/24 04:29:32;;;;;;;71.53;39.22;;;;;;;;;;5066510;28;20024;-78
2023/10/24 04:31:59;;;;;;;72.55;39.95;;;;;;;;;;5090873;28;20417;-78
2023/10/24 04:34:25;;;;;;;76.40;39.30;;;;;;;;;;5054637;28;20485;-77
2023/10/24 04:36:53;;;;;;;75.63;39.55;;;;;;;;;;5081032;28;20055;-78
2023/10/24 04:39:19;;;;;;;77.35;40.17;;;;;;;;;;5083974;28;20032;-77
2023/10/24 04:41:50;;;;;;;68.80;39.30;;;;;;;;;;5092691;28;20096;-77
2023/10/24 04:44:16;;;;;;;73.22;39.90;;;;;;;;;;5074862;28;20094;-77
2023/10/24 04:46:42;;;;;;;66.35;38.65;;;;;;;;;;5070370;28;20495;-78
2023/10/24 04:49:08;;;;;;;74.60;39.50;;;;;;;;;;5089998;28;20028;-78
2023/10/24 04:51:34;;;;;;;68.55;40.92;;;;;;;;;;5084806;28;20350;-78
2023/10/24 04:54:01;;;;;;;74.55;41.03;;;;;;;;;;5068254;28;20434;-78
2023/10/24 04:56:27;;;;;;;76.15;42.38;;;;;;;;;;5071023;28;20035;-77
2023/10/24 04:58:54;;;;;;;80.45;40.42;;;;;;;;;;5066672;28;20033;-78
2023/10/24 05:01:21;;;;;;;74.97;40.05;;;;;;;;;;5068985;28;20036;-77
2023/10/24 05:03:47;;;;;;;74.78;40.72;;;;;;;;;;5088115;28;20043;-78
2023/10/24 05:06:13;;;;;;;79.75;42.50;;;;;;;;;;5083283;28;20033;-79
2023/10/24 05:08:39;;;;;;;72.88;41.28;;;;;;;;;;5086361;28;20415;-78
2023/10/24 05:11:06;;;;;;;77.28;43.35;;;;;;;;;;5066324;28;20036;-79
2023/10/24 05:13:36;;;;;;;74.50;41.55;;;;;;;;;;5079886;28;20028;-79
2023/10/24 05:16:03;;;;;;;76.10;40.67;;;;;;;;;;5064496;28;20511;-80
2023/10/24 05:18:29;;;;;;;74.80;41.53;;;;;;;;;;5085226;28;20043;-78
2023/10/24 05:20:55;;;;;;;70.65;40.80;;;;;;;;;;5065320;28;20036;-79
2023/10/24 05:23:21;;;;;;;74.38;40.72;;;;;;;;;;5084156;28;20047;-78
2023/10/24 05:25:47;;;;;;;70.30;40.55;;;;;;;;;;5067672;28;20036;-79
2023/10/24 05:28:13;;;;;;;70.93;40.75;;;;;;;;;;5065769;28;20435;-78
2023/10/24 05:30:39;;;;;;;68.60;39.78;;;;;;;;;;5048387;28;20375;-79
2023/10/24 05:33:06;;;;;;;69.60;39.90;;;;;;;;;;5066313;28;20027;-78
2023/10/24 05:35:32;;;;;;;67.15;39.65;;;;;;;;;;5081466;28;20697;-79
2023/10/24 05:37:59;;;;;;;65.63;39.60;;;;;;;;;;5067054;28;20169;-79
2023/10/24 05:40:25;;;;;;;66.05;40.10;;;;;;;;;;5083140;28;20448;-78
2023/10/24 05:42:51;;;;;;;65.97;38.55;;;;;;;;;;5050788;28;20153;-78
2023/10/24 05:45:18;;;;;;;68.30;39.40;;;;;;;;;;5084774;28;20025;-78
2023/10/24 05:47:44;;;;;;;69.15;41.13;;;;;;;;;;5086392;28;20158;-78
2023/10/24 05:50:11;;;;;;;72.22;38.90;;;;;;;;;;5067237;28;20449;-84
2023/10/24 05:52:41;;;;;;;65.78;39.55;;;;;;;;;;5075889;28;20024;-78
2023/10/24 05:55:08;;;;;;;69.63;39.38;;;;;;;;;;5078133;28;20032;-80
2023/10/24 05:57:35;;;;;;;67.18;39.55;;;;;;;;;;5086596;28;20370;-77
2023/10/24 06:00:02;;;;;;;69.65;38.75;;;;;;;;;;5070114;28;20107;-78
2023/10/24 06:02:34;;;;;;;73.03;40.90;;;;;;;;;;5087866;28;20101;-78
2023/10/24 06:05:00;;;;;;;70.90;40.53;;;;;;;;;;5034370;28;20032;-78
2023/10/24 06:07:26;;;;;;;71.82;39.85;;;;;;;;;;5063702;28;20043;-79
2023/10/24 06:09:52;;;;;;;68.95;38.35;;;;;;;;;;5051037;28;20489;-79
2023/10/24 06:12:18;;;;;;;68.53;39.40;;;;;;;;;;5088088;28;20031;-78
2023/10/24 06:14:45;;;;;;;67.60;38.03;;;;;;;;;;5052869;28;20086;-79
2023/10/24 06:17:17;;;;;;;67.13;39.03;;;;;;;;;;5085518;28;20055;-79
2023/10/24 06:19:43;;;;;;;66.72;38.22;;;;;;;;;;5069889;28;20036;-78
2023/10/24 06:22:09;;;;;;;65.18;38.47;;;;;;;;;;5062221;28;20060;-79
2023/10/24 06:24:36;;;;;;;61.38;37.40;;;;;;;;;;5076003;28;20063;-78
2023/10/24 06:27:02;;;;;;;59.63;35.35;;;;;;;;;;5078215;28;20490;-78
2023/10/24 06:29:30;;;;;;;57.70;35.67;;;;;;;;;;5069503;28;20460;-78
2023/10/24 06:31:57;;;;;;;50.80;33.38;;;;;;;;;;5036136;28;20473;-77
2023/10/24 06:34:23;;;;;;;54.45;34.10;;;;;;;;;;5052652;28;20444;-77
2023/10/24 06:36:49;;;;;;;51.85;33.47;;;;;;;;;;5070422;28;20032;-77
2023/10/24 06:39:15;;;;;;;54.75;34.42;;;;;;;;;;5086561;28;20035;-78
2023/10/24 06:41:41;;;;;;;53.58;33.42;;;;;;;;;;5081441;28;20105;-79
2023/10/24 06:44:09;;;;;;;53.63;32.80;;;;;;;;;;5065207;28;20035;-78
2023/10/24 06:46:35;;;;;;;58.08;32.70;;;;;;;;;;5050781;28;20131;-78
2023/10/24 06:49:01;;;;;;;51.15;32.17;;;;;;;;;;5065829;28;20536;-77
2023/10/24 06:51:27;;;;;;;48.53;30.65;;;;;;;;;;5051717;28;20032;-78
2023/10/24 06:53:53;;;;;;;48.85;31.10;;;;;;;;;;5061752;28;20041;-78
2023/10/24 06:56:19;;;;;;;52.55;32.55;;;;;;;;;;5086941;28;20039;-78
2023/10/24 06:58:45;;;;;;;48.63;30.88;;;;;;;;;;5088597;28;20611;-78
2023/10/24 07:01:12;;;;;;;49.28;30.65;;;;;;;;;;5090179;28;20028;-77
2023/10/24 07:03:38;;;;;;;49.08;29.30;;;;;;;;;;5052062;28;20481;-79
2023/10/24 07:06:04;;;;;;;49.53;30.80;;;;;;;;;;5057056;28;20031;-78
2023/10/24 07:08:31;;;;;;;50.13;32.03;;;;;;;;;;5081860;28;20080;-78
2023/10/24 07:10:57;;;;;;;53.15;32.28;;;;;;;;;;5082270;28;20114;-77
2023/10/24 07:13:23;;;;;;;49.72;30.95;;;;;;;;;;5081657;28;20032;-78
2023/10/24 07:15:49;;;;;;;50.88;30.60;;;;;;;;;;5083386;28;20055;-78
2023/10/24 07:18:16;;;;;;;46.88;31.40;;;;;;;;;;5081106;28;20037;-77
2023/10/24 07:20:43;;;;;;;45.95;29.20;;;;;;;;;;5065040;28;20032;-78
2023/10/24 07:23:10;;;;;;;44.80;29.50;;;;;;;;;;5077938;28;20040;-77
2023/10/24 07:25:36;;;;;;;44.38;29.75;;;;;;;;;;5070095;28;20458;-77
2023/10/24 07:28:04;;;;;;;44.10;30.27;;;;;;;;;;5051590;28;20024;-77
2023/10/24 07:30:31;;;;;;;41.75;29.20;;;;;;;;;;5069991;28;20028;-77
2023/10/24 07:32:57;;;;;;;44.95;29.58;;;;;;;;;;5064367;28;20075;-77
2023/10/24 07:35:24;;;;;;;43.08;29.17;;;;;;;;;;5071667;28;20036;-77
2023/10/24 07:37:51;;;;;;;41.25;28.55;;;;;;;;;;5054020;28;20040;-77
2023/10/24 07:40:17;;;;;;;48.50;29.85;;;;;;;;;;5089344;28;20023;-79
2023/10/24 07:42:43;;;;;;;46.88;31.20;;;;;;;;;;5088370;28;20024;-77
2023/10/24 07:45:11;;;;;;;47.65;30.75;;;;;;;;;;5042486;28;20129;-77
2023/10/24 07:47:37;;;;;;;44.85;29.58;;;;;;;;;;5067574;28;20032;-77
2023/10/24 07:50:03;;;;;;;45.20;31.08;;;;;;;;;;5062207;28;20028;-76
2023/10/24 07:52:29;;;;;;;44.03;30.38;;;;;;;;;;5083168;28;20039;-76
2023/10/24 07:54:55;;;;;;;43.00;30.80;;;;;;;;;;5080295;28;20028;-78
2023/10/24 07:57:22;;;;;;;41.67;30.00;;;;;;;;;;5064440;28;20142;-76
2023/10/24 07:59:49;;;;;;;40.05;30.00;;;;;;;;;;5060961;28;20388;-77
2023/10/24 08:02:15;;;;;;;38.17;29.30;;;;;;;;;;5083569;28;20143;-81
2023/10/24 08:04:41;;;;;;;41.20;29.23;;;;;;;;;;5064368;28;20059;-83
2023/10/24 08:07:07;;;;;;;41.80;30.65;;;;;;;;;;5066850;28;20063;-81
2023/10/24 08:09:33;;;;;;;43.25;31.13;;;;;;;;;;5089139;28;20051;-80
2023/10/24 08:12:00;;;;;;;43.92;30.98;;;;;;;;;;5074282;28;20097;-82
2023/10/24 08:14:28;;;;;;;45.90;30.23;;;;;;;;;;5092972;28;21039;-82
2023/10/24 08:16:54;;;;;;;44.97;30.73;;;;;;;;;;5093257;28;20370;-81
2023/10/24 08:19:20;;;;;;;44.60;32.00;;;;;;;;;;5058169;28;20036;-81
2023/10/24 08:21:47;;;;;;;41.30;30.67;;;;;;;;;;5075037;28;20393;-81
2023/10/24 08:24:14;;;;;;;44.50;32.42;;;;;;;;;;5075072;28;20181;-80
2023/10/24 08:26:40;;;;;;;41.05;30.42;;;;;;;;;;5066959;28;20047;-80
2023/10/24 08:29:07;;;;;;;43.08;30.98;;;;;;;;;;5084214;28;20511;-82
2023/10/24 08:31:33;;;;;;;41.97;30.13;;;;;;;;;;5074731;28;20039;-81
2023/10/24 08:33:59;;;;;;;39.00;28.98;;;;;;;;;;5093563;28;20032;-81
2023/10/24 08:36:25;;;;;;;39.90;28.98;;;;;;;;;;5093056;28;20040;-81
2023/10/24 08:38:51;;;;;;;40.15;29.73;;;;;;;;;;5074442;28;20040;-81
2023/10/24 08:41:19;;;;;;;41.40;30.90;;;;;;;;;;5074762;28;20040;-81
2023/10/24 08:43:46;;;;;;;38.17;28.92;;;;;;;;;;5075729;28;20048;-81
2023/10/24 08:46:12;;;;;;;35.88;28.77;;;;;;;;;;5076513;28;20036;-83
2023/10/24 08:48:38;;;;;;;36.35;27.92;;;;;;;;;;5062278;28;20298;-81
2023/10/24 08:51:04;;;;;;;37.60;28.40;;;;;;;;;;5089279;28;20040;-80
2023/10/24 08:53:32;;;;;;;39.70;28.00;;;;;;;;;;5060012;28;20379;-79
2023/10/24 08:55:58;;;;;;;33.60;26.92;;;;;;;;;;5074833;28;20098;-81
2023/10/24 08:58:25;;;;;;;33.97;26.92;;;;;;;;;;5053802;28;20038;-80
2023/10/24 09:00:51;;;;;;;30.85;25.45;;;;;;;;;;5058399;28;20482;-80
2023/10/24 09:03:18;;;;;;;32.45;24.63;;;;;;;;;;5058186;28;20106;-80
2023/10/24 09:05:47;;;;;;;30.35;24.70;;;;;;;;;;5092587;28;20382;-80
2023/10/24 09:08:14;;;;;;;33.70;24.83;;;;;;;;;;5060058;28;20060;-81
2023/10/24 09:10:40;;;;;;;28.85;23.25;;;;;;;;;;5074292;28;20036;-80
2023/10/24 09:13:06;;;;;;;26.98;22.10;;;;;;;;;;5074007;28;20100;-80
2023/10/24 09:15:34;;;;;;;27.13;22.40;;;;;;;;;;5073621;28;20047;-81
2023/10/24 09:18:06;;;;;;;27.25;22.45;;;;;;;;;;5073128;28;20035;-80
2023/10/24 09:20:33;;;;;;;26.88;22.20;;;;;;;;;;5074164;28;20361;-80
2023/10/24 09:23:07;;;;;;;26.33;21.20;;;;;;;;;;5074257;28;20112;-80
2023/10/24 09:25:33;;;;;;;23.83;20.52;;;;;;;;;;5074409;28;20096;-81
2023/10/24 09:28:14;;;;;;;23.60;19.70;;;;;;;;;;5086546;28;20495;-82
2023/10/24 09:30:40;;;;;;;22.65;18.98;;;;;;;;;;5070865;28;20433;-81
2023/10/24 09:33:06;;;;;;;25.08;18.13;;;;;;;;;;5054155;28;20421;-82
2023/10/24 09:35:33;;;;;;;21.75;17.00;;;;;;;;;;5054039;28;20416;-81
2023/10/24 09:38:00;;;;;;;22.40;17.85;;;;;;;;;;5037217;28;20498;-83
2023/10/24 09:40:36;;;;;;;24.05;17.67;;;;;;;;;;5091887;28;20024;-81
2023/10/24 09:43:10;;;;;;;21.30;17.05;;;;;;;;;;5084305;28;20020;-81
2023/10/24 09:45:36;;;;;;;23.15;17.20;;;;;;;;;;5071947;28;20028;-81
2023/10/24 09:48:03;;;;;;;23.00;17.38;;;;;;;;;;5058778;28;20396;-80
2023/10/24 09:50:30;;;;;;;20.35;15.80;;;;;;;;;;5053161;28;20048;-81
2023/10/24 09:52:56;;;;;;;20.38;15.43;;;;;;;;;;5053784;28;20067;-81
2023/10/24 09:55:23;;;;;;;17.30;14.00;;;;;;;;;;5071533;28;20071;-81
2023/10/24 09:57:50;;;;;;;16.08;13.20;;;;;;;;;;5074968;28;20020;-82
2023/10/24 10:00:17;;;;;;;28.40;14.85;;;;;;;;;;5059279;28;20127;-83
2023/10/24 10:02:44;;;;;;;16.60;13.18;;;;;;;;;;5054080;28;20071;-82
2023/10/24 10:05:13;;;;;;;19.75;13.73;;;;;;;;;;5071377;28;20472;-82
2023/10/24 10:07:40;;;;;;;26.27;13.55;;;;;;;;;;5070777;28;20143;-83
2023/10/24 10:10:06;;;;;;;22.42;13.95;;;;;;;;;;5068691;28;20028;-82
2023/10/24 10:12:33;;;;;;;17.48;13.70;;;;;;;;;;5067516;28;20020;-81
2023/10/24 10:15:18;;;;;;;21.77;13.70;;;;;;;;;;5055835;28;20073;-80
2023/10/24 10:18:10;;;;;;;18.13;15.27;;;;;;;;;;5061739;28;20038;-83
2023/10/24 10:20:36;;;;;;;19.75;15.27;;;;;;;;;;5078209;28;20492;-84
2023/10/24 10:23:09;;;;;;;18.58;15.07;;;;;;;;;;5060084;28;20020;-82
2023/10/24 10:25:54;;;;;;;17.42;15.32;;;;;;;;;;5057488;28;20028;-81
2023/10/24 10:28:26;;;;;;;22.67;16.73;;;;;;;;;;5066206;28;20032;-83
2023/10/24 10:31:04;;;;;;;21.80;17.05;;;;;;;;;;5066681;28;20107;-81
2023/10/24 10:33:30;;;;;;;22.15;17.63;;;;;;;;;;5059328;28;20090;-83
2023/10/24 10:36:04;;;;;;;22.33;17.98;;;;;;;;;;5083332;28;20024;-81
2023/10/24 10:38:38;;;;;;;24.50;18.77;;;;;;;;;;5079318;28;20047;-80
2023/10/24 10:41:22;;;;;;;26.92;19.95;;;;;;;;;;5083716;28;20062;-78
2023/10/24 10:43:49;;;;;;;25.40;19.25;;;;;;;;;;5067986;28;20050;-78
2023/10/24 10:46:16;;;;;;;24.73;19.42;;;;;;;;;;5079209;28;20020;-80
2023/10/24 10:48:43;;;;;;;22.83;18.98;;;;;;;;;;5081250;28;20128;-80
2023/10/24 10:51:23;;;;;;;23.00;19.98;;;;;;;;;;5073207;28;20043;-78
2023/10/24 10:54:07;;;;;;;25.27;19.90;;;;;;;;;;5084417;28;20487;-79
2023/10/24 10:56:35;;;;;;;24.92;20.85;;;;;;;;;;5072022;28;20417;-80
2023/10/24 10:59:05;;;;;;;28.70;21.85;;;;;;;;;;5085138;28;20051;-80
2023/10/24 11:01:37;;;;;;;26.80;22.30;;;;;;;;;;5067190;28;20043;-80
2023/10/24 11:04:12;;;;;;;29.23;23.00;;;;;;;;;;5079333;28;20184;-79
2023/10/24 11:06:41;;;;;;;27.20;21.67;;;;;;;;;;5084143;28;20105;-80
2023/10/24 11:09:13;;;;;;;29.83;22.88;;;;;;;;;;5086013;28;20408;-80
2023/10/24 11:11:39;;;;;;;27.83;22.33;;;;;;;;;;5085040;28;21856;-78
2023/10/24 11:14:15;;;;;;;27.85;21.38;;;;;;;;;;5042455;28;20545;-79
2023/10/24 11:16:42;;;;;;;25.20;19.30;;;;;;;;;;5061135;28;20418;-79
2023/10/24 11:19:10;;;;;;;27.08;18.35;;;;;;;;;;5083443;28;20515;-80
2023/10/24 11:21:36;;;;;;;22.45;19.58;;;;;;;;;;5083032;28;20412;-80
2023/10/24 11:24:02;;;;;;;26.00;19.33;;;;;;;;;;5035638;28;20032;-78
2023/10/24 11:26:28;;;;;;;22.27;19.13;;;;;;;;;;5084209;28;20044;-80
2023/10/24 11:28:54;;;;;;;24.27;18.48;;;;;;;;;;5084949;28;20330;-78
2023/10/24 11:31:25;;;;;;;25.08;18.23;;;;;;;;;;5082910;28;20028;-78
2023/10/24 11:33:51;;;;;;;21.33;17.02;;;;;;;;;;5064988;28;20040;-80
2023/10/24 11:36:17;;;;;;;21.80;18.30;;;;;;;;;;5062863;28;20032;-79
2023/10/24 11:38:44;;;;;;;20.65;16.52;;;;;;;;;;5082287;28;20032;-79
2023/10/24 11:41:11;;;;;;;20.88;17.85;;;;;;;;;;5088928;28;20028;-81
2023/10/24 11:43:37;;;;;;;22.05;17.77;;;;;;;;;;5040474;28;20028;-80
2023/10/24 11:46:04;;;;;;;19.73;16.67;;;;;;;;;;5068299;28;20040;-79
2023/10/24 11:48:30;;;;;;;19.17;15.07;;;;;;;;;;5086114;28;20389;-79
2023/10/24 11:50:56;;;;;;;18.40;14.60;;;;;;;;;;5089380;28;20085;-78
2023/10/24 11:53:23;;;;;;;18.25;15.25;;;;;;;;;;5086954;28;20084;-79
2023/10/24 11:55:50;;;;;;;18.58;14.30;;;;;;;;;;5074901;28;20040;-79
2023/10/24 11:58:16;;;;;;;17.05;13.35;;;;;;;;;;5073664;28;20421;-79
2023/10/24 12:00:43;;;;;;;21.45;14.82;;;;;;;;;;5055641;28;20071;-79
2023/10/24 12:03:09;;;;;;;14.65;12.10;;;;;;;;;;5091861;28;20106;-78
2023/10/24 12:05:36;;;;;;;16.17;12.85;;;;;;;;;;5092806;28;20028;-79
2023/10/24 12:08:03;;;;;;;14.98;12.10;;;;;;;;;;5071367;28;20497;-80
2023/10/24 12:10:33;;;;;;;19.33;13.07;;;;;;;;;;5071961;28;20504;-81
2023/10/24 12:13:03;;;;;;;17.85;12.80;;;;;;;;;;5070036;28;20100;-78
2023/10/24 12:15:29;;;;;;;13.65;11.13;;;;;;;;;;5063831;28;20115;-81
2023/10/24 12:17:57;;;;;;;13.70;10.73;;;;;;;;;;5069391;28;20028;-80
2023/10/24 12:20:24;;;;;;;15.23;11.45;;;;;;;;;;5066702;28;20032;-80
2023/10/24 12:22:50;;;;;;;13.57;10.90;;;;;;;;;;5061770;28;20031;-79
2023/10/24 12:25:17;;;;;;;11.70;10.25;;;;;;;;;;5065224;28;20033;-80
2023/10/24 12:27:46;;;;;;;16.67;11.27;;;;;;;;;;5067313;28;20079;-81
2023/10/24 12:30:13;;;;;;;13.80;10.63;;;;;;;;;;5064823;28;20035;-80
2023/10/24 12:32:41;;;;;;;15.05;10.38;;;;;;;;;;5064137;28;20692;-80
2023/10/24 12:35:07;;;;;;;15.23;10.15;;;;;;;;;;5039349;28;20083;-81
2023/10/24 12:37:34;;;;;;;17.17;11.65;;;;;;;;;;5062842;28;20025;-79
2023/10/24 12:40:02;;;;;;;11.57;9.73;;;;;;;;;;5048734;28;20033;-79
2023/10/24 12:42:29;;;;;;;13.50;9.70;;;;;;;;;;5064950;28;20063;-79
2023/10/24 12:44:55;;;;;;;11.80;9.52;;;;;;;;;;5050732;28;20862;-80
2023/10/24 12:47:21;;;;;;;12.55;10.15;;;;;;;;;;5070594;28;20123;-79
2023/10/24 12:49:47;;;;;;;15.82;9.43;;;;;;;;;;5068775;28;20085;-79
2023/10/24 12:52:13;;;;;;;11.43;7.78;;;;;;;;;;5097940;28;20033;-88
2023/10/24 12:54:39;;;;;;;9.73;7.50;;;;;;;;;;5077357;28;20047;-85
2023/10/24 12:57:05;;;;;;;11.85;8.02;;;;;;;;;;5066006;28;20036;-85
2023/10/24 12:59:32;;;;;;;10.20;7.38;;;;;;;;;;5058550;28;20097;-84
2023/10/24 13:01:58;;;;;;;9.15;6.90;;;;;;;;;;5055320;28;20794;-87
2023/10/24 13:04:24;;;;;;;9.77;6.35;;;;;;;;;;5057044;28;20117;-88
2023/10/24 13:06:54;;;;;;;7.55;5.43;;;;;;;;;;5053027;28;20044;-87
2023/10/24 13:09:20;;;;;;;9.27;6.18;;;;;;;;;;5059679;28;20048;-87
2023/10/24 13:11:47;;;;;;;8.93;5.95;;;;;;;;;;5071928;28;20024;-87
2023/10/24 13:14:13;;;;;;;8.35;5.20;;;;;;;;;;5051386;28;20493;-89
2023/10/24 13:16:40;;;;;;;12.23;4.78;;;;;;;;;;5066270;28;20040;-88
2023/10/24 13:19:06;;;;;;;12.40;5.22;;;;;;;;;;5067543;28;20111;-91
2023/10/24 13:21:33;;;;;;;11.57;5.63;;;;;;;;;;5070996;28;20037;-90
2023/10/24 13:23:59;;;;;;;7.38;5.47;;;;;;;;;;5069411;28;20123;-91
2023/10/24 13:26:25;;;;;;;8.20;5.45;;;;;;;;;;5072882;28;20389;-91
2023/10/24 13:28:52;;;;;;;8.20;5.40;;;;;;;;;;5074013;28;20173;-89
2023/10/24 13:31:18;;;;;;;13.52;5.97;;;;;;;;;;5075869;28;20056;-90
2023/10/24 13:33:44;;;;;;;8.52;5.53;;;;;;;;;;5073782;28;20043;-89
2023/10/24 13:36:13;;;;;;;7.10;5.95;;;;;;;;;;5076137;28;20035;-88
2023/10/24 13:38:39;;;;;;;9.38;6.38;;;;;;;;;;5047222;28;20052;-88
2023/10/24 13:41:05;;;;;;;11.65;6.00;;;;;;;;;;5061104;28;20031;-88
2023/10/24 13:43:35;;;;;;;9.40;6.47;;;;;;;;;;5062028;28;20142;-89
2023/10/24 13:46:02;;;;;;;12.25;6.70;;;;;;;;;;5057318;28;20036;-90
2023/10/24 13:48:49;;;;;;;8.65;6.53;;;;;;;;;;5056919;28;20414;-89
2023/10/24 13:51:15;;;;;;;9.63;6.32;;;;;;;;;;5060079;28;20033;-88
2023/10/24 13:53:41;;;;;;;13.30;7.22;;;;;;;;;;5060875;28;20040;-90
2023/10/24 13:56:07;;;;;;;12.70;6.32;;;;;;;;;;5070609;28;20040;-88
2023/10/24 13:58:33;;;;;;;10.40;6.60;;;;;;;;;;5080897;28;20113;-87
2023/10/24 14:00:59;;;;;;;15.68;6.72;;;;;;;;;;5081593;28;20511;-87
2023/10/24 14:03:25;;;;;;;9.13;6.90;;;;;;;;;;5061162;28;20033;-86
2023/10/24 14:05:52;;;;;;;11.32;6.93;;;;;;;;;;5073623;28;20140;-88
2023/10/24 14:08:18;;;;;;;10.60;7.43;;;;;;;;;;5069607;28;20044;-87
2023/10/24 14:10:44;;;;;;;10.95;6.82;;;;;;;;;;5078219;28;20120;-87
2023/10/24 14:13:11;;;;;;;12.15;7.60;;;;;;;;;;5065191;28;20044;-89
2023/10/24 14:15:37;;;;;;;9.10;6.85;;;;;;;;;;5079498;28;20020;-88
2023/10/24 14:18:03;;;;;;;16.10;7.93;;;;;;;;;;5067088;28;20042;-87